sensor_id;sensor_type;location;lat;lon;timestamp;P1;durP1;ratioP1;P2;durP2;ratioP2
53961;SDS011;39868;53.398;6.564;2022-07-23T00:00:33;4.22;;;1.70;;
53961;SDS011;39868;53.398;6.564;2022-07-23T00:03:05;1.83;;;1.70;;
53961;SDS011;39868;53.398;6.564;2022-07-23T00:05:33;1.75;;;1.63;;
53961;SDS011;39868;53.398;6.564;2022-07-23T00:08:02;1.80;;;1.65;;
53961;SDS011;39868;53.398;6.564;2022-07-23T00:10:31;2.47;;;1.80;;
53961;SDS011;39868;53.398;6.564;2022-07-23T00:12:59;2.88;;;1.45;;
53961;SDS011;39868;53.398;6.564;2022-07-23T00:15:27;1.83;;;1.70;;
53961;SDS011;39868;53.398;6.564;2022-07-23T00:17:55;2.53;;;1.38;;
53961;SDS011;39868;53.398;6.564;2022-07-23T00:20:22;1.40;;;1.30;;
53961;SDS011;39868;53.398;6.564;2022-07-23T00:22:51;2.03;;;1.50;;
53961;SDS011;39868;53.398;6.564;2022-07-23T00:25:20;1.55;;;1.45;;
53961;SDS011;39868;53.398;6.564;2022-07-23T00:27:54;1.42;;;1.33;;
53961;SDS011;39868;53.398;6.564;2022-07-23T00:30:22;1.73;;;1.27;;
53961;SDS011;39868;53.398;6.564;2022-07-23T00:32:52;1.65;;;1.40;;
53961;SDS011;39868;53.398;6.564;2022-07-23T00:35:26;1.73;;;1.50;;
53961;SDS011;39868;53.398;6.564;2022-07-23T00:37:55;2.45;;;1.42;;
53961;SDS011;39868;53.398;6.564;2022-07-23T00:40:24;4.07;;;1.63;;
53961;SDS011;39868;53.398;6.564;2022-07-23T00:42:52;4.35;;;1.52;;
53961;SDS011;39868;53.398;6.564;2022-07-23T00:45:20;4.00;;;1.70;;
53961;SDS011;39868;53.398;6.564;2022-07-23T00:47:48;2.38;;;1.40;;
53961;SDS011;39868;53.398;6.564;2022-07-23T00:50:16;2.03;;;1.85;;
53961;SDS011;39868;53.398;6.564;2022-07-23T00:52:44;5.65;;;2.22;;
53961;SDS011;39868;53.398;6.564;2022-07-23T00:55:12;2.47;;;2.10;;
53961;SDS011;39868;53.398;6.564;2022-07-23T00:57:41;4.38;;;2.10;;
53961;SDS011;39868;53.398;6.564;2022-07-23T01:00:11;3.95;;;2.25;;
53961;SDS011;39868;53.398;6.564;2022-07-23T01:02:39;5.55;;;2.40;;
53961;SDS011;39868;53.398;6.564;2022-07-23T01:05:08;6.90;;;2.65;;
53961;SDS011;39868;53.398;6.564;2022-07-23T01:07:36;2.75;;;2.00;;
53961;SDS011;39868;53.398;6.564;2022-07-23T01:10:04;3.13;;;2.30;;
53961;SDS011;39868;53.398;6.564;2022-07-23T01:12:52;2.65;;;2.33;;
53961;SDS011;39868;53.398;6.564;2022-07-23T01:15:20;4.40;;;2.50;;
53961;SDS011;39868;53.398;6.564;2022-07-23T01:17:48;3.03;;;2.15;;
53961;SDS011;39868;53.398;6.564;2022-07-23T01:20:16;3.38;;;2.05;;
53961;SDS011;39868;53.398;6.564;2022-07-23T01:22:44;2.20;;;2.00;;
53961;SDS011;39868;53.398;6.564;2022-07-23T01:25:12;2.95;;;2.00;;
53961;SDS011;39868;53.398;6.564;2022-07-23T01:27:45;4.72;;;2.00;;
53961;SDS011;39868;53.398;6.564;2022-07-23T01:30:14;3.75;;;2.20;;
53961;SDS011;39868;53.398;6.564;2022-07-23T01:32:42;3.22;;;2.08;;
53961;SDS011;39868;53.398;6.564;2022-07-23T01:35:10;3.00;;;2.30;;
53961;SDS011;39868;53.398;6.564;2022-07-23T01:37:38;3.50;;;2.22;;
53961;SDS011;39868;53.398;6.564;2022-07-23T01:40:06;3.13;;;2.03;;
53961;SDS011;39868;53.398;6.564;2022-07-23T01:42:36;2.78;;;2.30;;
53961;SDS011;39868;53.398;6.564;2022-07-23T01:45:06;2.83;;;1.88;;
53961;SDS011;39868;53.398;6.564;2022-07-23T01:47:35;2.33;;;2.10;;
53961;SDS011;39868;53.398;6.564;2022-07-23T01:50:03;2.30;;;2.10;;
53961;SDS011;39868;53.398;6.564;2022-07-23T01:52:47;2.17;;;1.98;;
53961;SDS011;39868;53.398;6.564;2022-07-23T01:55:14;2.50;;;2.20;;
53961;SDS011;39868;53.398;6.564;2022-07-23T01:57:47;2.00;;;1.83;;
53961;SDS011;39868;53.398;6.564;2022-07-23T02:00:18;3.50;;;2.55;;
53961;SDS011;39868;53.398;6.564;2022-07-23T02:02:48;2.50;;;2.28;;
53961;SDS011;39868;53.398;6.564;2022-07-23T02:05:15;2.53;;;2.10;;
53961;SDS011;39868;53.398;6.564;2022-07-23T02:07:44;2.95;;;2.38;;
53961;SDS011;39868;53.398;6.564;2022-07-23T02:10:12;3.00;;;2.38;;
53961;SDS011;39868;53.398;6.564;2022-07-23T02:12:39;3.17;;;2.42;;
53961;SDS011;39868;53.398;6.564;2022-07-23T02:15:09;2.70;;;2.20;;
53961;SDS011;39868;53.398;6.564;2022-07-23T02:17:39;3.22;;;2.47;;
53961;SDS011;39868;53.398;6.564;2022-07-23T02:20:07;5.05;;;2.47;;
53961;SDS011;39868;53.398;6.564;2022-07-23T02:22:36;3.85;;;2.53;;
53961;SDS011;39868;53.398;6.564;2022-07-23T02:25:05;3.60;;;2.38;;
53961;SDS011;39868;53.398;6.564;2022-07-23T02:27:33;3.50;;;2.15;;
53961;SDS011;39868;53.398;6.564;2022-07-23T02:30:04;5.57;;;3.05;;
53961;SDS011;39868;53.398;6.564;2022-07-23T02:32:33;4.80;;;2.28;;
53961;SDS011;39868;53.398;6.564;2022-07-23T02:35:02;3.03;;;2.47;;
53961;SDS011;39868;53.398;6.564;2022-07-23T02:37:31;3.65;;;2.72;;
53961;SDS011;39868;53.398;6.564;2022-07-23T02:39:59;4.30;;;2.70;;
53961;SDS011;39868;53.398;6.564;2022-07-23T02:42:29;3.97;;;2.53;;
53961;SDS011;39868;53.398;6.564;2022-07-23T02:44:56;2.75;;;2.40;;
53961;SDS011;39868;53.398;6.564;2022-07-23T02:47:24;4.30;;;2.70;;
53961;SDS011;39868;53.398;6.564;2022-07-23T02:49:51;4.25;;;2.60;;
53961;SDS011;39868;53.398;6.564;2022-07-23T02:52:19;3.00;;;2.42;;
53961;SDS011;39868;53.398;6.564;2022-07-23T02:54:47;3.00;;;2.50;;
53961;SDS011;39868;53.398;6.564;2022-07-23T02:57:15;3.35;;;2.50;;
53961;SDS011;39868;53.398;6.564;2022-07-23T02:59:43;2.75;;;2.42;;
53961;SDS011;39868;53.398;6.564;2022-07-23T03:02:10;4.32;;;2.47;;
53961;SDS011;39868;53.398;6.564;2022-07-23T03:04:38;2.88;;;2.33;;
53961;SDS011;39868;53.398;6.564;2022-07-23T03:07:05;3.85;;;2.30;;
53961;SDS011;39868;53.398;6.564;2022-07-23T03:09:34;2.65;;;2.15;;
53961;SDS011;39868;53.398;6.564;2022-07-23T03:12:02;3.10;;;2.10;;
53961;SDS011;39868;53.398;6.564;2022-07-23T03:14:36;3.75;;;2.42;;
53961;SDS011;39868;53.398;6.564;2022-07-23T03:17:03;3.10;;;2.50;;
53961;SDS011;39868;53.398;6.564;2022-07-23T03:19:31;2.60;;;2.40;;
53961;SDS011;39868;53.398;6.564;2022-07-23T03:22:00;5.20;;;2.17;;
53961;SDS011;39868;53.398;6.564;2022-07-23T03:24:29;2.85;;;2.25;;
53961;SDS011;39868;53.398;6.564;2022-07-23T03:27:14;4.30;;;2.15;;
53961;SDS011;39868;53.398;6.564;2022-07-23T03:29:42;2.75;;;2.45;;
53961;SDS011;39868;53.398;6.564;2022-07-23T03:32:09;4.75;;;2.00;;
53961;SDS011;39868;53.398;6.564;2022-07-23T03:34:37;3.33;;;2.08;;
53961;SDS011;39868;53.398;6.564;2022-07-23T03:37:05;3.53;;;2.08;;
53961;SDS011;39868;53.398;6.564;2022-07-23T03:39:35;4.30;;;2.28;;
53961;SDS011;39868;53.398;6.564;2022-07-23T03:42:02;4.13;;;1.88;;
53961;SDS011;39868;53.398;6.564;2022-07-23T03:44:30;3.33;;;1.92;;
53961;SDS011;39868;53.398;6.564;2022-07-23T03:46:58;2.80;;;2.00;;
53961;SDS011;39868;53.398;6.564;2022-07-23T03:49:26;4.28;;;1.92;;
53961;SDS011;39868;53.398;6.564;2022-07-23T03:51:53;3.90;;;2.00;;
53961;SDS011;39868;53.398;6.564;2022-07-23T03:54:20;2.15;;;1.83;;
53961;SDS011;39868;53.398;6.564;2022-07-23T03:56:48;2.83;;;1.77;;
53961;SDS011;39868;53.398;6.564;2022-07-23T03:59:15;3.42;;;1.88;;
53961;SDS011;39868;53.398;6.564;2022-07-23T04:01:49;1.98;;;1.77;;
53961;SDS011;39868;53.398;6.564;2022-07-23T04:04:17;3.80;;;2.33;;
53961;SDS011;39868;53.398;6.564;2022-07-23T04:06:45;3.00;;;1.90;;
53961;SDS011;39868;53.398;6.564;2022-07-23T04:09:14;2.60;;;2.00;;
53961;SDS011;39868;53.398;6.564;2022-07-23T04:11:41;2.20;;;1.80;;
53961;SDS011;39868;53.398;6.564;2022-07-23T04:14:09;2.78;;;1.90;;
53961;SDS011;39868;53.398;6.564;2022-07-23T04:16:36;3.67;;;1.90;;
53961;SDS011;39868;53.398;6.564;2022-07-23T04:19:04;3.47;;;1.83;;
53961;SDS011;39868;53.398;6.564;2022-07-23T04:21:40;5.18;;;2.00;;
53961;SDS011;39868;53.398;6.564;2022-07-23T04:24:08;2.53;;;2.10;;
53961;SDS011;39868;53.398;6.564;2022-07-23T04:26:35;2.38;;;2.00;;
53961;SDS011;39868;53.398;6.564;2022-07-23T04:29:03;2.78;;;2.20;;
53961;SDS011;39868;53.398;6.564;2022-07-23T04:31:31;2.97;;;2.00;;
53961;SDS011;39868;53.398;6.564;2022-07-23T04:34:03;3.65;;;2.55;;
53961;SDS011;39868;53.398;6.564;2022-07-23T04:36:32;2.92;;;2.22;;
53961;SDS011;39868;53.398;6.564;2022-07-23T04:38:59;2.88;;;2.38;;
53961;SDS011;39868;53.398;6.564;2022-07-23T04:41:27;3.65;;;2.70;;
53961;SDS011;39868;53.398;6.564;2022-07-23T04:43:55;5.03;;;2.80;;
53961;SDS011;39868;53.398;6.564;2022-07-23T04:46:22;4.20;;;2.28;;
53961;SDS011;39868;53.398;6.564;2022-07-23T04:48:50;4.80;;;2.40;;
53961;SDS011;39868;53.398;6.564;2022-07-23T04:51:18;3.15;;;2.33;;
53961;SDS011;39868;53.398;6.564;2022-07-23T04:53:46;4.72;;;2.58;;
53961;SDS011;39868;53.398;6.564;2022-07-23T04:56:13;4.70;;;2.55;;
53961;SDS011;39868;53.398;6.564;2022-07-23T04:58:40;2.30;;;2.10;;
53961;SDS011;39868;53.398;6.564;2022-07-23T05:01:08;3.63;;;2.50;;
53961;SDS011;39868;53.398;6.564;2022-07-23T05:03:36;3.70;;;2.35;;
53961;SDS011;39868;53.398;6.564;2022-07-23T05:06:04;3.22;;;2.30;;
53961;SDS011;39868;53.398;6.564;2022-07-23T05:08:32;2.72;;;2.10;;
53961;SDS011;39868;53.398;6.564;2022-07-23T05:10:59;3.05;;;2.28;;
53961;SDS011;39868;53.398;6.564;2022-07-23T05:13:28;2.95;;;2.30;;
53961;SDS011;39868;53.398;6.564;2022-07-23T05:15:55;2.95;;;2.05;;
53961;SDS011;39868;53.398;6.564;2022-07-23T05:18:25;3.40;;;2.22;;
53961;SDS011;39868;53.398;6.564;2022-07-23T05:20:53;5.00;;;2.28;;
53961;SDS011;39868;53.398;6.564;2022-07-23T05:23:21;2.92;;;2.47;;
53961;SDS011;39868;53.398;6.564;2022-07-23T05:25:49;3.85;;;2.10;;
53961;SDS011;39868;53.398;6.564;2022-07-23T05:28:18;2.20;;;1.90;;
53961;SDS011;39868;53.398;6.564;2022-07-23T05:30:49;2.42;;;2.03;;
53961;SDS011;39868;53.398;6.564;2022-07-23T05:33:20;3.10;;;2.00;;
53961;SDS011;39868;53.398;6.564;2022-07-23T05:35:48;5.45;;;2.50;;
53961;SDS011;39868;53.398;6.564;2022-07-23T05:38:35;2.60;;;2.05;;
53961;SDS011;39868;53.398;6.564;2022-07-23T05:41:03;2.70;;;1.80;;
53961;SDS011;39868;53.398;6.564;2022-07-23T05:43:31;1.92;;;1.70;;
53961;SDS011;39868;53.398;6.564;2022-07-23T05:46:04;3.17;;;2.13;;
53961;SDS011;39868;53.398;6.564;2022-07-23T05:48:35;1.73;;;1.63;;
53961;SDS011;39868;53.398;6.564;2022-07-23T05:51:08;1.52;;;1.42;;
53961;SDS011;39868;53.398;6.564;2022-07-23T05:53:36;1.50;;;1.40;;
53961;SDS011;39868;53.398;6.564;2022-07-23T05:56:17;1.92;;;1.30;;
53961;SDS011;39868;53.398;6.564;2022-07-23T05:58:45;1.60;;;1.50;;
53961;SDS011;39868;53.398;6.564;2022-07-23T06:01:16;1.90;;;1.30;;
53961;SDS011;39868;53.398;6.564;2022-07-23T06:03:50;1.65;;;1.40;;
53961;SDS011;39868;53.398;6.564;2022-07-23T06:06:17;2.45;;;1.40;;
53961;SDS011;39868;53.398;6.564;2022-07-23T06:08:45;2.10;;;1.40;;
53961;SDS011;39868;53.398;6.564;2022-07-23T06:11:13;1.50;;;1.40;;
53961;SDS011;39868;53.398;6.564;2022-07-23T06:13:40;1.90;;;1.80;;
53961;SDS011;39868;53.398;6.564;2022-07-23T06:16:08;2.50;;;1.60;;
53961;SDS011;39868;53.398;6.564;2022-07-23T06:18:36;3.80;;;1.63;;
53961;SDS011;39868;53.398;6.564;2022-07-23T06:21:04;1.77;;;1.60;;
53961;SDS011;39868;53.398;6.564;2022-07-23T06:23:51;1.50;;;1.40;;
53961;SDS011;39868;53.398;6.564;2022-07-23T06:26:18;1.65;;;1.55;;
53961;SDS011;39868;53.398;6.564;2022-07-23T06:28:46;1.90;;;1.55;;
53961;SDS011;39868;53.398;6.564;2022-07-23T06:31:13;1.88;;;1.50;;
53961;SDS011;39868;53.398;6.564;2022-07-23T06:33:41;1.75;;;1.50;;
53961;SDS011;39868;53.398;6.564;2022-07-23T06:36:08;1.70;;;1.60;;
53961;SDS011;39868;53.398;6.564;2022-07-23T06:38:36;1.73;;;1.63;;
53961;SDS011;39868;53.398;6.564;2022-07-23T06:41:05;1.40;;;1.40;;
53961;SDS011;39868;53.398;6.564;2022-07-23T06:43:32;1.50;;;1.50;;
53961;SDS011;39868;53.398;6.564;2022-07-23T06:46:00;1.75;;;1.58;;
53961;SDS011;39868;53.398;6.564;2022-07-23T06:48:27;5.03;;;1.80;;
53961;SDS011;39868;53.398;6.564;2022-07-23T06:50:55;1.77;;;1.67;;
53961;SDS011;39868;53.398;6.564;2022-07-23T06:53:23;1.63;;;1.50;;
53961;SDS011;39868;53.398;6.564;2022-07-23T06:55:51;1.55;;;1.45;;
53961;SDS011;39868;53.398;6.564;2022-07-23T06:58:18;1.90;;;1.70;;
53961;SDS011;39868;53.398;6.564;2022-07-23T07:00:47;1.90;;;1.73;;
53961;SDS011;39868;53.398;6.564;2022-07-23T07:03:14;1.92;;;1.83;;
53961;SDS011;39868;53.398;6.564;2022-07-23T07:05:44;2.08;;;1.98;;
53961;SDS011;39868;53.398;6.564;2022-07-23T07:08:12;2.10;;;2.00;;
53961;SDS011;39868;53.398;6.564;2022-07-23T07:10:40;2.35;;;2.15;;
53961;SDS011;39868;53.398;6.564;2022-07-23T07:13:07;2.17;;;2.08;;
53961;SDS011;39868;53.398;6.564;2022-07-23T07:15:35;2.15;;;2.03;;
53961;SDS011;39868;53.398;6.564;2022-07-23T07:18:03;2.20;;;2.10;;
53961;SDS011;39868;53.398;6.564;2022-07-23T07:20:30;2.30;;;2.15;;
53961;SDS011;39868;53.398;6.564;2022-07-23T07:22:58;2.35;;;2.03;;
53961;SDS011;39868;53.398;6.564;2022-07-23T07:25:25;2.85;;;2.20;;
53961;SDS011;39868;53.398;6.564;2022-07-23T07:27:53;2.00;;;1.90;;
53961;SDS011;39868;53.398;6.564;2022-07-23T07:30:20;5.45;;;2.85;;
53961;SDS011;39868;53.398;6.564;2022-07-23T07:32:48;4.68;;;2.63;;
53961;SDS011;39868;53.398;6.564;2022-07-23T07:35:24;4.22;;;2.63;;
53961;SDS011;39868;53.398;6.564;2022-07-23T07:37:51;2.40;;;2.20;;
53961;SDS011;39868;53.398;6.564;2022-07-23T07:40:19;2.42;;;2.15;;
53961;SDS011;39868;53.398;6.564;2022-07-23T07:42:47;2.97;;;2.08;;
53961;SDS011;39868;53.398;6.564;2022-07-23T07:45:16;3.85;;;2.00;;
53961;SDS011;39868;53.398;6.564;2022-07-23T07:47:46;2.80;;;1.98;;
53961;SDS011;39868;53.398;6.564;2022-07-23T07:50:14;2.85;;;2.20;;
53961;SDS011;39868;53.398;6.564;2022-07-23T07:52:42;2.03;;;1.90;;
53961;SDS011;39868;53.398;6.564;2022-07-23T07:55:09;2.25;;;2.15;;
53961;SDS011;39868;53.398;6.564;2022-07-23T07:57:38;2.40;;;2.20;;
53961;SDS011;39868;53.398;6.564;2022-07-23T08:00:06;2.25;;;2.15;;
53961;SDS011;39868;53.398;6.564;2022-07-23T08:02:41;2.45;;;2.00;;
53961;SDS011;39868;53.398;6.564;2022-07-23T08:05:20;2.20;;;2.10;;
53961;SDS011;39868;53.398;6.564;2022-07-23T08:07:57;2.40;;;2.20;;
53961;SDS011;39868;53.398;6.564;2022-07-23T08:10:26;2.10;;;2.00;;
53961;SDS011;39868;53.398;6.564;2022-07-23T08:12:55;2.25;;;2.13;;
53961;SDS011;39868;53.398;6.564;2022-07-23T08:15:24;2.00;;;1.90;;
53961;SDS011;39868;53.398;6.564;2022-07-23T08:17:53;2.20;;;2.10;;
53961;SDS011;39868;53.398;6.564;2022-07-23T08:20:22;2.88;;;2.20;;
53961;SDS011;39868;53.398;6.564;2022-07-23T08:22:55;2.40;;;2.30;;
53961;SDS011;39868;53.398;6.564;2022-07-23T08:25:25;2.10;;;2.00;;
53961;SDS011;39868;53.398;6.564;2022-07-23T08:27:54;2.10;;;2.00;;
53961;SDS011;39868;53.398;6.564;2022-07-23T08:30:22;2.30;;;2.10;;
53961;SDS011;39868;53.398;6.564;2022-07-23T08:32:51;2.35;;;2.15;;
53961;SDS011;39868;53.398;6.564;2022-07-23T08:35:22;2.00;;;1.90;;
53961;SDS011;39868;53.398;6.564;2022-07-23T08:37:52;2.13;;;2.03;;
53961;SDS011;39868;53.398;6.564;2022-07-23T08:40:19;2.33;;;2.22;;
53961;SDS011;39868;53.398;6.564;2022-07-23T08:42:48;2.47;;;2.08;;
53961;SDS011;39868;53.398;6.564;2022-07-23T08:45:17;2.10;;;2.00;;
53961;SDS011;39868;53.398;6.564;2022-07-23T08:47:54;2.00;;;1.90;;
53961;SDS011;39868;53.398;6.564;2022-07-23T08:50:23;2.10;;;2.00;;
53961;SDS011;39868;53.398;6.564;2022-07-23T08:52:52;2.38;;;2.15;;
53961;SDS011;39868;53.398;6.564;2022-07-23T08:55:21;2.25;;;2.15;;
53961;SDS011;39868;53.398;6.564;2022-07-23T08:57:51;2.45;;;2.28;;
53961;SDS011;39868;53.398;6.564;2022-07-23T09:00:20;2.38;;;2.20;;
53961;SDS011;39868;53.398;6.564;2022-07-23T09:02:49;3.50;;;2.40;;
53961;SDS011;39868;53.398;6.564;2022-07-23T09:05:18;2.95;;;2.20;;
53961;SDS011;39868;53.398;6.564;2022-07-23T09:10:54;2.53;;;2.33;;
53961;SDS011;39868;53.398;6.564;2022-07-23T09:13:28;2.10;;;2.00;;
53961;SDS011;39868;53.398;6.564;2022-07-23T09:18:31;4.50;;;2.45;;
53961;SDS011;39868;53.398;6.564;2022-07-23T09:26:46;7.10;;;2.20;;
53961;SDS011;39868;53.398;6.564;2022-07-23T09:29:20;2.30;;;2.20;;
53961;SDS011;39868;53.398;6.564;2022-07-23T09:31:50;2.38;;;2.20;;
53961;SDS011;39868;53.398;6.564;2022-07-23T09:36:58;2.60;;;2.30;;
53961;SDS011;39868;53.398;6.564;2022-07-23T09:39:39;2.30;;;2.20;;
53961;SDS011;39868;53.398;6.564;2022-07-23T09:42:14;2.47;;;2.28;;
53961;SDS011;39868;53.398;6.564;2022-07-23T09:44:47;2.20;;;2.10;;
53961;SDS011;39868;53.398;6.564;2022-07-23T09:47:16;2.38;;;2.00;;
53961;SDS011;39868;53.398;6.564;2022-07-23T09:50:05;2.92;;;2.45;;
53961;SDS011;39868;53.398;6.564;2022-07-23T09:52:37;2.78;;;2.08;;
53961;SDS011;39868;53.398;6.564;2022-07-23T09:55:11;2.40;;;2.20;;
53961;SDS011;39868;53.398;6.564;2022-07-23T09:57:40;2.35;;;2.08;;
53961;SDS011;39868;53.398;6.564;2022-07-23T10:00:09;2.25;;;2.15;;
53961;SDS011;39868;53.398;6.564;2022-07-23T10:02:40;2.10;;;2.00;;
53961;SDS011;39868;53.398;6.564;2022-07-23T10:05:26;3.08;;;2.10;;
53961;SDS011;39868;53.398;6.564;2022-07-23T10:08:13;2.00;;;1.90;;
53961;SDS011;39868;53.398;6.564;2022-07-23T10:10:56;2.45;;;2.10;;
53961;SDS011;39868;53.398;6.564;2022-07-23T10:13:51;2.33;;;2.22;;
53961;SDS011;39868;53.398;6.564;2022-07-23T10:16:42;2.33;;;2.00;;
53961;SDS011;39868;53.398;6.564;2022-07-23T10:19:10;3.47;;;2.70;;
53961;SDS011;39868;53.398;6.564;2022-07-23T10:21:57;3.83;;;2.42;;
53961;SDS011;39868;53.398;6.564;2022-07-23T10:30:03;2.45;;;2.25;;
53961;SDS011;39868;53.398;6.564;2022-07-23T10:37:56;2.20;;;2.10;;
53961;SDS011;39868;53.398;6.564;2022-07-23T10:40:53;3.13;;;2.20;;
53961;SDS011;39868;53.398;6.564;2022-07-23T10:43:23;2.53;;;2.38;;
53961;SDS011;39868;53.398;6.564;2022-07-23T10:45:55;2.50;;;2.40;;
53961;SDS011;39868;53.398;6.564;2022-07-23T10:48:43;2.42;;;2.30;;
53961;SDS011;39868;53.398;6.564;2022-07-23T10:51:13;2.72;;;2.50;;
53961;SDS011;39868;53.398;6.564;2022-07-23T10:53:53;3.05;;;2.75;;
53961;SDS011;39868;53.398;6.564;2022-07-23T10:59:30;2.50;;;2.40;;
53961;SDS011;39868;53.398;6.564;2022-07-23T11:04:48;2.65;;;2.45;;
53961;SDS011;39868;53.398;6.564;2022-07-23T11:07:17;2.78;;;2.58;;
53961;SDS011;39868;53.398;6.564;2022-07-23T11:09:47;2.50;;;2.40;;
53961;SDS011;39868;53.398;6.564;2022-07-23T11:17:31;3.60;;;2.20;;
53961;SDS011;39868;53.398;6.564;2022-07-23T11:25:13;2.70;;;2.60;;
53961;SDS011;39868;53.398;6.564;2022-07-23T11:28:16;2.80;;;2.60;;
53961;SDS011;39868;53.398;6.564;2022-07-23T11:30:45;2.75;;;2.50;;
53961;SDS011;39868;53.398;6.564;2022-07-23T11:35:41;2.60;;;2.50;;
53961;SDS011;39868;53.398;6.564;2022-07-23T11:40:43;3.00;;;2.70;;
53961;SDS011;39868;53.398;6.564;2022-07-23T11:43:12;2.90;;;2.70;;
53961;SDS011;39868;53.398;6.564;2022-07-23T11:45:42;6.75;;;3.50;;
53961;SDS011;39868;53.398;6.564;2022-07-23T11:48:30;3.10;;;2.90;;
53961;SDS011;39868;53.398;6.564;2022-07-23T11:51:02;5.68;;;3.30;;
53961;SDS011;39868;53.398;6.564;2022-07-23T11:53:33;2.83;;;2.55;;
53961;SDS011;39868;53.398;6.564;2022-07-23T11:56:08;2.75;;;2.60;;
53961;SDS011;39868;53.398;6.564;2022-07-23T11:58:38;2.88;;;2.72;;
53961;SDS011;39868;53.398;6.564;2022-07-23T12:01:06;3.60;;;3.22;;
53961;SDS011;39868;53.398;6.564;2022-07-23T12:03:48;5.40;;;3.00;;
53961;SDS011;39868;53.398;6.564;2022-07-23T12:06:19;2.92;;;2.70;;
53961;SDS011;39868;53.398;6.564;2022-07-23T12:08:46;3.20;;;3.00;;
53961;SDS011;39868;53.398;6.564;2022-07-23T12:11:14;4.00;;;3.03;;
53961;SDS011;39868;53.398;6.564;2022-07-23T12:13:42;3.78;;;3.40;;
53961;SDS011;39868;53.398;6.564;2022-07-23T12:16:11;3.08;;;2.88;;
53961;SDS011;39868;53.398;6.564;2022-07-23T12:18:38;2.83;;;2.60;;
53961;SDS011;39868;53.398;6.564;2022-07-23T12:21:06;3.03;;;2.85;;
53961;SDS011;39868;53.398;6.564;2022-07-23T12:23:35;2.80;;;2.60;;
53961;SDS011;39868;53.398;6.564;2022-07-23T12:26:04;3.50;;;3.20;;
53961;SDS011;39868;53.398;6.564;2022-07-23T12:28:33;3.55;;;3.25;;
53961;SDS011;39868;53.398;6.564;2022-07-23T12:31:04;2.88;;;2.67;;
53961;SDS011;39868;53.398;6.564;2022-07-23T12:33:34;3.00;;;2.75;;
53961;SDS011;39868;53.398;6.564;2022-07-23T12:36:04;2.72;;;2.60;;
53961;SDS011;39868;53.398;6.564;2022-07-23T12:38:51;4.82;;;3.13;;
53961;SDS011;39868;53.398;6.564;2022-07-23T12:41:18;3.08;;;2.78;;
53961;SDS011;39868;53.398;6.564;2022-07-23T12:43:46;3.05;;;2.85;;
53961;SDS011;39868;53.398;6.564;2022-07-23T12:46:14;2.92;;;2.70;;
53961;SDS011;39868;53.398;6.564;2022-07-23T12:51:18;3.13;;;2.70;;
53961;SDS011;39868;53.398;6.564;2022-07-23T12:54:04;2.77;;;2.60;;
53961;SDS011;39868;53.398;6.564;2022-07-23T12:56:34;2.75;;;2.60;;
53961;SDS011;39868;53.398;6.564;2022-07-23T13:01:38;3.97;;;2.90;;
53961;SDS011;39868;53.398;6.564;2022-07-23T13:04:12;3.40;;;3.00;;
53961;SDS011;39868;53.398;6.564;2022-07-23T13:06:56;3.30;;;3.00;;
53961;SDS011;39868;53.398;6.564;2022-07-23T13:09:26;3.20;;;3.00;;
53961;SDS011;39868;53.398;6.564;2022-07-23T13:11:59;3.22;;;3.03;;
53961;SDS011;39868;53.398;6.564;2022-07-23T13:14:27;3.20;;;3.00;;
53961;SDS011;39868;53.398;6.564;2022-07-23T13:16:55;3.28;;;3.08;;
53961;SDS011;39868;53.398;6.564;2022-07-23T13:19:25;3.30;;;3.10;;
53961;SDS011;39868;53.398;6.564;2022-07-23T13:21:53;3.58;;;3.30;;
53961;SDS011;39868;53.398;6.564;2022-07-23T13:24:21;3.15;;;3.00;;
53961;SDS011;39868;53.398;6.564;2022-07-23T13:26:49;3.33;;;3.13;;
53961;SDS011;39868;53.398;6.564;2022-07-23T13:29:18;3.40;;;3.20;;
53961;SDS011;39868;53.398;6.564;2022-07-23T13:31:47;3.70;;;3.40;;
53961;SDS011;39868;53.398;6.564;2022-07-23T13:34:16;3.17;;;2.97;;
53961;SDS011;39868;53.398;6.564;2022-07-23T13:36:45;3.20;;;3.03;;
53961;SDS011;39868;53.398;6.564;2022-07-23T13:39:13;3.40;;;3.20;;
53961;SDS011;39868;53.398;6.564;2022-07-23T13:41:40;3.53;;;3.00;;
53961;SDS011;39868;53.398;6.564;2022-07-23T13:44:16;3.20;;;3.10;;
53961;SDS011;39868;53.398;6.564;2022-07-23T13:46:45;3.33;;;2.80;;
53961;SDS011;39868;53.398;6.564;2022-07-23T13:49:13;3.00;;;2.80;;
53961;SDS011;39868;53.398;6.564;2022-07-23T13:51:41;3.13;;;2.92;;
53961;SDS011;39868;53.398;6.564;2022-07-23T13:54:08;3.20;;;3.00;;
53961;SDS011;39868;53.398;6.564;2022-07-23T13:56:36;3.00;;;2.80;;
53961;SDS011;39868;53.398;6.564;2022-07-23T13:59:04;3.17;;;2.97;;
53961;SDS011;39868;53.398;6.564;2022-07-23T14:01:32;3.53;;;3.22;;
53961;SDS011;39868;53.398;6.564;2022-07-23T14:04:16;3.30;;;3.10;;
53961;SDS011;39868;53.398;6.564;2022-07-23T14:06:44;3.33;;;3.03;;
53961;SDS011;39868;53.398;6.564;2022-07-23T14:09:18;3.10;;;3.00;;
53961;SDS011;39868;53.398;6.564;2022-07-23T14:11:45;3.33;;;3.03;;
53961;SDS011;39868;53.398;6.564;2022-07-23T14:14:13;3.33;;;3.10;;
53961;SDS011;39868;53.398;6.564;2022-07-23T14:16:40;3.20;;;3.00;;
53961;SDS011;39868;53.398;6.564;2022-07-23T14:19:08;3.38;;;3.10;;
53961;SDS011;39868;53.398;6.564;2022-07-23T14:21:36;3.28;;;3.00;;
53961;SDS011;39868;53.398;6.564;2022-07-23T14:24:04;3.30;;;3.10;;
53961;SDS011;39868;53.398;6.564;2022-07-23T14:26:32;3.47;;;2.92;;
53961;SDS011;39868;53.398;6.564;2022-07-23T14:28:59;3.20;;;3.00;;
53961;SDS011;39868;53.398;6.564;2022-07-23T14:31:28;3.60;;;3.40;;
53961;SDS011;39868;53.398;6.564;2022-07-23T14:33:55;3.25;;;3.00;;
53961;SDS011;39868;53.398;6.564;2022-07-23T14:36:23;3.35;;;3.15;;
53961;SDS011;39868;53.398;6.564;2022-07-23T14:38:51;3.20;;;3.00;;
53961;SDS011;39868;53.398;6.564;2022-07-23T14:41:20;3.60;;;3.40;;
53961;SDS011;39868;53.398;6.564;2022-07-23T14:43:53;3.17;;;2.97;;
53961;SDS011;39868;53.398;6.564;2022-07-23T14:46:21;3.53;;;3.33;;
53961;SDS011;39868;53.398;6.564;2022-07-23T14:48:49;3.60;;;3.40;;
53961;SDS011;39868;53.398;6.564;2022-07-23T14:51:17;3.28;;;3.17;;
53961;SDS011;39868;53.398;6.564;2022-07-23T14:53:45;3.70;;;3.50;;
53961;SDS011;39868;53.398;6.564;2022-07-23T14:56:12;3.60;;;3.40;;
53961;SDS011;39868;53.398;6.564;2022-07-23T14:58:42;3.40;;;3.20;;
53961;SDS011;39868;53.398;6.564;2022-07-23T15:01:11;3.58;;;3.28;;
53961;SDS011;39868;53.398;6.564;2022-07-23T15:03:38;3.90;;;3.50;;
53961;SDS011;39868;53.398;6.564;2022-07-23T15:06:09;3.72;;;3.53;;
53961;SDS011;39868;53.398;6.564;2022-07-23T15:08:38;3.83;;;3.40;;
53961;SDS011;39868;53.398;6.564;2022-07-23T15:11:06;3.25;;;3.05;;
53961;SDS011;39868;53.398;6.564;2022-07-23T15:13:36;4.50;;;3.10;;
53961;SDS011;39868;53.398;6.564;2022-07-23T15:16:06;3.40;;;3.10;;
53961;SDS011;39868;53.398;6.564;2022-07-23T15:18:39;3.45;;;3.25;;
53961;SDS011;39868;53.398;6.564;2022-07-23T15:21:07;3.58;;;3.38;;
53961;SDS011;39868;53.398;6.564;2022-07-23T15:23:35;3.65;;;3.45;;
53961;SDS011;39868;53.398;6.564;2022-07-23T15:26:05;3.63;;;3.35;;
53961;SDS011;39868;53.398;6.564;2022-07-23T15:28:34;3.47;;;3.28;;
53961;SDS011;39868;53.398;6.564;2022-07-23T15:31:03;3.17;;;3.08;;
53961;SDS011;39868;53.398;6.564;2022-07-23T15:33:34;3.50;;;3.30;;
53961;SDS011;39868;53.398;6.564;2022-07-23T15:36:03;3.50;;;3.28;;
53961;SDS011;39868;53.398;6.564;2022-07-23T15:38:31;3.30;;;3.10;;
53961;SDS011;39868;53.398;6.564;2022-07-23T15:40:59;3.30;;;3.10;;
53961;SDS011;39868;53.398;6.564;2022-07-23T15:43:26;2.70;;;2.60;;
53961;SDS011;39868;53.398;6.564;2022-07-23T15:45:54;3.70;;;3.00;;
53961;SDS011;39868;53.398;6.564;2022-07-23T15:48:23;3.30;;;3.10;;
53961;SDS011;39868;53.398;6.564;2022-07-23T15:50:51;3.33;;;3.03;;
53961;SDS011;39868;53.398;6.564;2022-07-23T15:53:19;3.67;;;3.13;;
53961;SDS011;39868;53.398;6.564;2022-07-23T15:56:02;3.30;;;3.10;;